sensor_id;sensor_type;location;lat;lon;timestamp;P1;durP1;ratioP1;P2;durP2;ratioP2
29416;SDS011;28421;51.030;4.006;2022-12-18T06:02:06;23.83;;;12.23;;
29416;SDS011;28421;51.030;4.006;2022-12-18T06:04:31;21.92;;;11.52;;
29416;SDS011;28421;51.030;4.006;2022-12-18T06:06:58;20.38;;;14.00;;
29416;SDS011;28421;51.030;4.006;2022-12-18T06:09:23;29.20;;;14.82;;
29416;SDS011;28421;51.030;4.006;2022-12-18T06:11:49;29.42;;;14.70;;
29416;SDS011;28421;51.030;4.006;2022-12-18T06:14:17;22.27;;;10.68;;
29416;SDS011;28421;51.030;4.006;2022-12-18T06:16:42;27.30;;;13.77;;
29416;SDS011;28421;51.030;4.006;2022-12-18T06:19:12;26.25;;;12.88;;
29416;SDS011;28421;51.030;4.006;2022-12-18T06:21:40;20.38;;;12.38;;
29416;SDS011;28421;51.030;4.006;2022-12-18T06:24:06;24.20;;;12.00;;
29416;SDS011;28421;51.030;4.006;2022-12-18T06:26:31;29.70;;;13.18;;
29416;SDS011;28421;51.030;4.006;2022-12-18T06:28:57;25.13;;;11.88;;
29416;SDS011;28421;51.030;4.006;2022-12-18T06:31:22;26.30;;;13.30;;
29416;SDS011;28421;51.030;4.006;2022-12-18T06:33:47;24.90;;;12.65;;
29416;SDS011;28421;51.030;4.006;2022-12-18T06:36:13;27.48;;;12.80;;
29416;SDS011;28421;51.030;4.006;2022-12-18T06:38:40;27.17;;;13.05;;
29416;SDS011;28421;51.030;4.006;2022-12-18T06:41:24;27.98;;;12.70;;
29416;SDS011;28421;51.030;4.006;2022-12-18T06:43:50;24.48;;;13.80;;
29416;SDS011;28421;51.030;4.006;2022-12-18T06:46:16;24.98;;;13.98;;
29416;SDS011;28421;51.030;4.006;2022-12-18T06:48:41;26.73;;;13.38;;
29416;SDS011;28421;51.030;4.006;2022-12-18T06:51:06;24.20;;;14.25;;
29416;SDS011;28421;51.030;4.006;2022-12-18T06:53:32;23.13;;;12.32;;
29416;SDS011;28421;51.030;4.006;2022-12-18T06:56:05;29.75;;;12.63;;
29416;SDS011;28421;51.030;4.006;2022-12-18T06:58:32;24.02;;;13.05;;
29416;SDS011;28421;51.030;4.006;2022-12-18T07:01:01;24.83;;;12.68;;
29416;SDS011;28421;51.030;4.006;2022-12-18T07:03:28;28.02;;;12.30;;
29416;SDS011;28421;51.030;4.006;2022-12-18T07:05:54;36.70;;;14.60;;
29416;SDS011;28421;51.030;4.006;2022-12-18T07:08:19;29.00;;;11.93;;
29416;SDS011;28421;51.030;4.006;2022-12-18T07:10:45;25.10;;;13.90;;
29416;SDS011;28421;51.030;4.006;2022-12-18T07:13:10;25.02;;;13.07;;
29416;SDS011;28421;51.030;4.006;2022-12-18T07:15:36;19.50;;;12.25;;
29416;SDS011;28421;51.030;4.006;2022-12-18T07:18:01;28.02;;;13.15;;
29416;SDS011;28421;51.030;4.006;2022-12-18T07:20:27;26.15;;;12.77;;
29416;SDS011;28421;51.030;4.006;2022-12-18T07:22:52;24.30;;;13.27;;
29416;SDS011;28421;51.030;4.006;2022-12-18T07:25:17;24.02;;;12.40;;
29416;SDS011;28421;51.030;4.006;2022-12-18T07:27:43;21.02;;;10.68;;
29416;SDS011;28421;51.030;4.006;2022-12-18T07:30:08;26.38;;;10.13;;
29416;SDS011;28421;51.030;4.006;2022-12-18T07:32:34;18.27;;;10.38;;
29416;SDS011;28421;51.030;4.006;2022-12-18T07:35:00;27.35;;;12.57;;
29416;SDS011;28421;51.030;4.006;2022-12-18T07:37:25;24.10;;;13.57;;
29416;SDS011;28421;51.030;4.006;2022-12-18T07:39:50;20.05;;;10.75;;
29416;SDS011;28421;51.030;4.006;2022-12-18T07:42:16;18.65;;;10.40;;
29416;SDS011;28421;51.030;4.006;2022-12-18T07:44:56;18.45;;;9.93;;
29416;SDS011;28421;51.030;4.006;2022-12-18T07:47:22;15.35;;;10.10;;
29416;SDS011;28421;51.030;4.006;2022-12-18T07:49:48;21.10;;;10.77;;
29416;SDS011;28421;51.030;4.006;2022-12-18T07:52:13;22.00;;;11.32;;
29416;SDS011;28421;51.030;4.006;2022-12-18T07:54:39;15.38;;;9.95;;
29416;SDS011;28421;51.030;4.006;2022-12-18T07:57:05;40.25;;;17.25;;
29416;SDS011;28421;51.030;4.006;2022-12-18T07:59:31;52.50;;;20.70;;
29416;SDS011;28421;51.030;4.006;2022-12-18T08:01:56;40.20;;;18.95;;
29416;SDS011;28421;51.030;4.006;2022-12-18T08:04:22;51.25;;;21.98;;
29416;SDS011;28421;51.030;4.006;2022-12-18T08:06:47;34.78;;;18.30;;
29416;SDS011;28421;51.030;4.006;2022-12-18T08:09:13;24.20;;;14.10;;
29416;SDS011;28421;51.030;4.006;2022-12-18T08:11:38;27.85;;;12.48;;
29416;SDS011;28421;51.030;4.006;2022-12-18T08:14:03;21.45;;;12.40;;
29416;SDS011;28421;51.030;4.006;2022-12-18T08:16:29;28.50;;;12.65;;
29416;SDS011;28421;51.030;4.006;2022-12-18T08:18:55;26.92;;;13.52;;
29416;SDS011;28421;51.030;4.006;2022-12-18T08:21:25;20.45;;;11.52;;
29416;SDS011;28421;51.030;4.006;2022-12-18T08:23:52;21.13;;;12.32;;
29416;SDS011;28421;51.030;4.006;2022-12-18T08:26:19;30.65;;;13.15;;
29416;SDS011;28421;51.030;4.006;2022-12-18T08:28:45;26.33;;;14.23;;
29416;SDS011;28421;51.030;4.006;2022-12-18T08:31:10;24.63;;;12.90;;
29416;SDS011;28421;51.030;4.006;2022-12-18T08:33:36;24.83;;;12.90;;
29416;SDS011;28421;51.030;4.006;2022-12-18T08:36:03;23.48;;;12.32;;
29416;SDS011;28421;51.030;4.006;2022-12-18T08:38:28;28.17;;;13.20;;
29416;SDS011;28421;51.030;4.006;2022-12-18T08:41:04;33.53;;;14.40;;
29416;SDS011;28421;51.030;4.006;2022-12-18T08:43:31;22.10;;;12.00;;
29416;SDS011;28421;51.030;4.006;2022-12-18T08:46:16;30.48;;;14.13;;
29416;SDS011;28421;51.030;4.006;2022-12-18T08:48:42;27.40;;;12.05;;
29416;SDS011;28421;51.030;4.006;2022-12-18T08:51:08;25.00;;;12.95;;
29416;SDS011;28421;51.030;4.006;2022-12-18T08:53:37;27.00;;;13.23;;
29416;SDS011;28421;51.030;4.006;2022-12-18T08:56:03;20.13;;;11.40;;
29416;SDS011;28421;51.030;4.006;2022-12-18T08:58:29;27.10;;;13.25;;
29416;SDS011;28421;51.030;4.006;2022-12-18T09:00:59;30.75;;;13.30;;
29416;SDS011;28421;51.030;4.006;2022-12-18T09:03:26;26.00;;;12.27;;
29416;SDS011;28421;51.030;4.006;2022-12-18T09:05:52;24.60;;;13.05;;
29416;SDS011;28421;51.030;4.006;2022-12-18T09:08:17;25.70;;;12.93;;
29416;SDS011;28421;51.030;4.006;2022-12-18T09:10:43;38.33;;;14.82;;
29416;SDS011;28421;51.030;4.006;2022-12-18T09:13:12;23.55;;;13.07;;
29416;SDS011;28421;51.030;4.006;2022-12-18T09:15:42;24.20;;;13.68;;
29416;SDS011;28421;51.030;4.006;2022-12-18T09:18:10;34.63;;;13.52;;
29416;SDS011;28421;51.030;4.006;2022-12-18T09:20:36;29.00;;;13.18;;
29416;SDS011;28421;51.030;4.006;2022-12-18T09:23:02;26.45;;;14.00;;
29416;SDS011;28421;51.030;4.006;2022-12-18T09:25:29;28.42;;;12.90;;
29416;SDS011;28421;51.030;4.006;2022-12-18T09:28:16;30.95;;;15.65;;
29416;SDS011;28421;51.030;4.006;2022-12-18T09:30:44;27.80;;;14.35;;
29416;SDS011;28421;51.030;4.006;2022-12-18T09:33:11;26.63;;;15.35;;
29416;SDS011;28421;51.030;4.006;2022-12-18T09:35:37;34.65;;;15.50;;
29416;SDS011;28421;51.030;4.006;2022-12-18T09:38:03;22.77;;;12.82;;
29416;SDS011;28421;51.030;4.006;2022-12-18T09:40:34;27.77;;;14.15;;
29416;SDS011;28421;51.030;4.006;2022-12-18T09:43:04;28.90;;;13.82;;
29416;SDS011;28421;51.030;4.006;2022-12-18T09:45:42;30.35;;;13.65;;
29416;SDS011;28421;51.030;4.006;2022-12-18T09:48:28;24.88;;;13.43;;
29416;SDS011;28421;51.030;4.006;2022-12-18T09:50:59;25.85;;;13.35;;
29416;SDS011;28421;51.030;4.006;2022-12-18T09:53:30;25.73;;;13.38;;
29416;SDS011;28421;51.030;4.006;2022-12-18T09:55:59;25.00;;;12.88;;
29416;SDS011;28421;51.030;4.006;2022-12-18T10:01:12;28.52;;;14.20;;
29416;SDS011;28421;51.030;4.006;2022-12-18T10:03:43;26.88;;;13.68;;
29416;SDS011;28421;51.030;4.006;2022-12-18T10:06:18;24.80;;;13.23;;
29416;SDS011;28421;51.030;4.006;2022-12-18T10:08:56;20.42;;;12.38;;
29416;SDS011;28421;51.030;4.006;2022-12-18T10:12:06;30.00;;;15.18;;
29416;SDS011;28421;51.030;4.006;2022-12-18T10:20:13;23.05;;;13.27;;
29416;SDS011;28421;51.030;4.006;2022-12-18T10:22:49;28.73;;;14.18;;
29416;SDS011;28421;51.030;4.006;2022-12-18T10:25:31;27.63;;;15.77;;
29416;SDS011;28421;51.030;4.006;2022-12-18T10:28:10;28.55;;;15.98;;
29416;SDS011;28421;51.030;4.006;2022-12-18T10:30:38;22.30;;;13.52;;
29416;SDS011;28421;51.030;4.006;2022-12-18T10:33:05;31.88;;;14.80;;
29416;SDS011;28421;51.030;4.006;2022-12-18T10:35:31;36.22;;;16.73;;
29416;SDS011;28421;51.030;4.006;2022-12-18T10:40:25;36.67;;;16.13;;
29416;SDS011;28421;51.030;4.006;2022-12-18T10:43:02;35.67;;;16.33;;
29416;SDS011;28421;51.030;4.006;2022-12-18T10:45:29;28.67;;;14.98;;
29416;SDS011;28421;51.030;4.006;2022-12-18T10:47:55;34.28;;;17.67;;
29416;SDS011;28421;51.030;4.006;2022-12-18T10:50:25;31.30;;;17.23;;
29416;SDS011;28421;51.030;4.006;2022-12-18T10:53:01;29.88;;;14.52;;
29416;SDS011;28421;51.030;4.006;2022-12-18T10:55:32;24.77;;;14.32;;
29416;SDS011;28421;51.030;4.006;2022-12-18T11:06:04;38.88;;;18.88;;
29416;SDS011;28421;51.030;4.006;2022-12-18T11:08:31;30.67;;;15.13;;
29416;SDS011;28421;51.030;4.006;2022-12-18T11:10:57;33.13;;;16.38;;
29416;SDS011;28421;51.030;4.006;2022-12-18T11:13:23;28.80;;;15.32;;
29416;SDS011;28421;51.030;4.006;2022-12-18T11:15:51;29.35;;;15.38;;
29416;SDS011;28421;51.030;4.006;2022-12-18T11:18:18;21.10;;;13.82;;
29416;SDS011;28421;51.030;4.006;2022-12-18T11:20:51;31.25;;;14.73;;
29416;SDS011;28421;51.030;4.006;2022-12-18T11:23:19;29.60;;;15.95;;
29416;SDS011;28421;51.030;4.006;2022-12-18T11:25:52;23.15;;;13.98;;
29416;SDS011;28421;51.030;4.006;2022-12-18T11:33:59;25.27;;;14.60;;
29416;SDS011;28421;51.030;4.006;2022-12-18T11:36:36;24.20;;;14.48;;
29416;SDS011;28421;51.030;4.006;2022-12-18T11:39:10;26.02;;;15.73;;
29416;SDS011;28421;51.030;4.006;2022-12-18T11:41:53;24.98;;;14.60;;
29416;SDS011;28421;51.030;4.006;2022-12-18T11:50:18;25.80;;;14.68;;
29416;SDS011;28421;51.030;4.006;2022-12-18T11:52:47;29.08;;;17.15;;
29416;SDS011;28421;51.030;4.006;2022-12-18T11:55:19;29.77;;;16.38;;
29416;SDS011;28421;51.030;4.006;2022-12-18T12:00:36;27.83;;;15.93;;
29416;SDS011;28421;51.030;4.006;2022-12-18T12:16:31;25.20;;;16.17;;
29416;SDS011;28421;51.030;4.006;2022-12-18T12:19:06;25.25;;;14.38;;
29416;SDS011;28421;51.030;4.006;2022-12-18T12:21:54;24.98;;;16.42;;
29416;SDS011;28421;51.030;4.006;2022-12-18T12:30:20;27.73;;;15.88;;
29416;SDS011;28421;51.030;4.006;2022-12-18T12:32:54;29.10;;;17.02;;
29416;SDS011;28421;51.030;4.006;2022-12-18T12:35:51;25.05;;;15.18;;
29416;SDS011;28421;51.030;4.006;2022-12-18T12:41:23;30.17;;;16.45;;
29416;SDS011;28421;51.030;4.006;2022-12-18T12:44:13;29.52;;;16.88;;
29416;SDS011;28421;51.030;4.006;2022-12-18T12:46:43;27.13;;;15.30;;
29416;SDS011;28421;51.030;4.006;2022-12-18T12:49:13;30.65;;;15.60;;
29416;SDS011;28421;51.030;4.006;2022-12-18T12:51:43;32.63;;;16.38;;
29416;SDS011;28421;51.030;4.006;2022-12-18T12:54:15;28.73;;;16.00;;
29416;SDS011;28421;51.030;4.006;2022-12-18T13:07:55;31.83;;;18.73;;
29416;SDS011;28421;51.030;4.006;2022-12-18T13:10:26;34.30;;;18.40;;
29416;SDS011;28421;51.030;4.006;2022-12-18T13:23:01;40.50;;;19.02;;
29416;SDS011;28421;51.030;4.006;2022-12-18T13:25:44;40.75;;;17.25;;
29416;SDS011;28421;51.030;4.006;2022-12-18T13:28:10;34.20;;;16.95;;
29416;SDS011;28421;51.030;4.006;2022-12-18T13:39:08;31.35;;;17.40;;
29416;SDS011;28421;51.030;4.006;2022-12-18T13:40:57;38.80;;;19.33;;
29416;SDS011;28421;51.030;4.006;2022-12-18T13:43:32;44.22;;;20.63;;
29416;SDS011;28421;51.030;4.006;2022-12-18T13:49:04;36.97;;;18.88;;
29416;SDS011;28421;51.030;4.006;2022-12-18T13:51:46;37.42;;;18.67;;
29416;SDS011;28421;51.030;4.006;2022-12-18T13:56:57;43.25;;;18.60;;
29416;SDS011;28421;51.030;4.006;2022-12-18T13:59:40;40.38;;;20.60;;
29416;SDS011;28421;51.030;4.006;2022-12-18T14:02:14;42.63;;;19.77;;
29416;SDS011;28421;51.030;4.006;2022-12-18T14:04:44;40.42;;;19.17;;
29416;SDS011;28421;51.030;4.006;2022-12-18T14:07:12;37.47;;;19.20;;
29416;SDS011;28421;51.030;4.006;2022-12-18T14:09:45;41.10;;;20.65;;
29416;SDS011;28421;51.030;4.006;2022-12-18T14:12:19;41.05;;;20.10;;
29416;SDS011;28421;51.030;4.006;2022-12-18T14:15:50;47.55;;;21.05;;
29416;SDS011;28421;51.030;4.006;2022-12-18T14:18:00;45.20;;;22.90;;
29416;SDS011;28421;51.030;4.006;2022-12-18T14:20:47;45.25;;;22.05;;
29416;SDS011;28421;51.030;4.006;2022-12-18T14:26:18;44.38;;;21.77;;
29416;SDS011;28421;51.030;4.006;2022-12-18T14:28:46;49.83;;;24.88;;
29416;SDS011;28421;51.030;4.006;2022-12-18T14:31:22;48.95;;;23.90;;
29416;SDS011;28421;51.030;4.006;2022-12-18T14:33:50;42.25;;;21.70;;
29416;SDS011;28421;51.030;4.006;2022-12-18T14:36:20;41.67;;;20.00;;
29416;SDS011;28421;51.030;4.006;2022-12-18T14:38:49;39.78;;;20.55;;
29416;SDS011;28421;51.030;4.006;2022-12-18T14:41:17;45.97;;;22.40;;
29416;SDS011;28421;51.030;4.006;2022-12-18T14:43:44;43.38;;;21.05;;
29416;SDS011;28421;51.030;4.006;2022-12-18T14:46:28;46.78;;;21.65;;
29416;SDS011;28421;51.030;4.006;2022-12-18T14:49:02;44.30;;;20.25;;
29416;SDS011;28421;51.030;4.006;2022-12-18T14:51:30;47.63;;;22.20;;
29416;SDS011;28421;51.030;4.006;2022-12-18T14:53:58;46.63;;;22.00;;
29416;SDS011;28421;51.030;4.006;2022-12-18T14:56:33;45.15;;;21.92;;
29416;SDS011;28421;51.030;4.006;2022-12-18T14:59:02;38.78;;;21.25;;
29416;SDS011;28421;51.030;4.006;2022-12-18T15:01:30;45.25;;;20.80;;
29416;SDS011;28421;51.030;4.006;2022-12-18T15:04:23;43.00;;;21.20;;
29416;SDS011;28421;51.030;4.006;2022-12-18T15:06:50;47.28;;;23.42;;
29416;SDS011;28421;51.030;4.006;2022-12-18T15:09:28;48.38;;;21.60;;
29416;SDS011;28421;51.030;4.006;2022-12-18T15:11:58;46.42;;;22.52;;
29416;SDS011;28421;51.030;4.006;2022-12-18T15:14:35;44.83;;;21.40;;
29416;SDS011;28421;51.030;4.006;2022-12-18T15:17:06;39.35;;;21.58;;
29416;SDS011;28421;51.030;4.006;2022-12-18T15:19:44;44.20;;;21.67;;
29416;SDS011;28421;51.030;4.006;2022-12-18T15:22:24;48.63;;;22.17;;
29416;SDS011;28421;51.030;4.006;2022-12-18T15:24:52;44.28;;;21.45;;
29416;SDS011;28421;51.030;4.006;2022-12-18T15:27:35;45.22;;;23.33;;
29416;SDS011;28421;51.030;4.006;2022-12-18T15:32:34;47.58;;;22.98;;
29416;SDS011;28421;51.030;4.006;2022-12-18T15:37:43;50.33;;;22.27;;
29416;SDS011;28421;51.030;4.006;2022-12-18T15:40:13;49.45;;;22.92;;
29416;SDS011;28421;51.030;4.006;2022-12-18T15:42:43;46.22;;;20.65;;
29416;SDS011;28421;51.030;4.006;2022-12-18T15:45:47;46.28;;;22.10;;
29416;SDS011;28421;51.030;4.006;2022-12-18T15:48:20;48.22;;;23.13;;
29416;SDS011;28421;51.030;4.006;2022-12-18T15:50:47;40.40;;;21.08;;
29416;SDS011;28421;51.030;4.006;2022-12-18T15:53:13;51.70;;;23.90;;
29416;SDS011;28421;51.030;4.006;2022-12-18T15:55:38;45.75;;;22.73;;
29416;SDS011;28421;51.030;4.006;2022-12-18T15:58:22;44.65;;;20.13;;
29416;SDS011;28421;51.030;4.006;2022-12-18T16:00:48;39.45;;;20.85;;
29416;SDS011;28421;51.030;4.006;2022-12-18T16:03:13;41.28;;;19.35;;
29416;SDS011;28421;51.030;4.006;2022-12-18T16:05:38;41.97;;;21.95;;
29416;SDS011;28421;51.030;4.006;2022-12-18T16:08:04;40.90;;;20.88;;
29416;SDS011;28421;51.030;4.006;2022-12-18T16:10:29;49.88;;;21.80;;
29416;SDS011;28421;51.030;4.006;2022-12-18T16:12:55;52.25;;;21.65;;
29416;SDS011;28421;51.030;4.006;2022-12-18T16:15:20;43.70;;;21.63;;
29416;SDS011;28421;51.030;4.006;2022-12-18T16:17:46;52.33;;;24.58;;
29416;SDS011;28421;51.030;4.006;2022-12-18T16:20:16;45.10;;;20.27;;
29416;SDS011;28421;51.030;4.006;2022-12-18T16:22:43;44.33;;;20.45;;
29416;SDS011;28421;51.030;4.006;2022-12-18T16:25:18;43.97;;;21.63;;
29416;SDS011;28421;51.030;4.006;2022-12-18T16:27:45;40.38;;;20.35;;
29416;SDS011;28421;51.030;4.006;2022-12-18T16:30:15;42.83;;;20.27;;
29416;SDS011;28421;51.030;4.006;2022-12-18T16:32:42;42.20;;;19.50;;
29416;SDS011;28421;51.030;4.006;2022-12-18T16:35:09;43.95;;;21.35;;
29416;SDS011;28421;51.030;4.006;2022-12-18T16:37:36;47.00;;;21.63;;
29416;SDS011;28421;51.030;4.006;2022-12-18T16:40:02;45.47;;;22.02;;
29416;SDS011;28421;51.030;4.006;2022-12-18T16:42:27;44.42;;;20.05;;
29416;SDS011;28421;51.030;4.006;2022-12-18T16:44:53;45.97;;;20.88;;
29416;SDS011;28421;51.030;4.006;2022-12-18T16:47:18;43.75;;;20.15;;
29416;SDS011;28421;51.030;4.006;2022-12-18T16:49:44;47.38;;;20.52;;
29416;SDS011;28421;51.030;4.006;2022-12-18T16:52:11;46.45;;;21.80;;
29416;SDS011;28421;51.030;4.006;2022-12-18T16:54:37;45.30;;;21.77;;
29416;SDS011;28421;51.030;4.006;2022-12-18T16:57:03;52.97;;;24.88;;
29416;SDS011;28421;51.030;4.006;2022-12-18T16:59:31;46.35;;;21.58;;
29416;SDS011;28421;51.030;4.006;2022-12-18T17:01:57;46.00;;;19.45;;
29416;SDS011;28421;51.030;4.006;2022-12-18T17:04:22;48.85;;;21.05;;
29416;SDS011;28421;51.030;4.006;2022-12-18T17:06:48;41.05;;;19.35;;
29416;SDS011;28421;51.030;4.006;2022-12-18T17:09:16;41.78;;;20.52;;
29416;SDS011;28421;51.030;4.006;2022-12-18T17:11:49;43.08;;;19.75;;
29416;SDS011;28421;51.030;4.006;2022-12-18T17:14:16;45.33;;;19.38;;
29416;SDS011;28421;51.030;4.006;2022-12-18T17:16:43;43.20;;;20.08;;
29416;SDS011;28421;51.030;4.006;2022-12-18T17:19:09;43.65;;;21.45;;
29416;SDS011;28421;51.030;4.006;2022-12-18T17:21:35;53.05;;;20.80;;
29416;SDS011;28421;51.030;4.006;2022-12-18T17:24:01;43.00;;;19.63;;
29416;SDS011;28421;51.030;4.006;2022-12-18T17:26:27;43.25;;;20.63;;
29416;SDS011;28421;51.030;4.006;2022-12-18T17:28:52;43.97;;;19.60;;
29416;SDS011;28421;51.030;4.006;2022-12-18T17:31:20;45.30;;;19.08;;
29416;SDS011;28421;51.030;4.006;2022-12-18T17:33:48;42.90;;;17.85;;
29416;SDS011;28421;51.030;4.006;2022-12-18T17:36:14;41.30;;;19.52;;
29416;SDS011;28421;51.030;4.006;2022-12-18T17:38:40;53.40;;;22.40;;
29416;SDS011;28421;51.030;4.006;2022-12-18T17:41:06;46.20;;;21.50;;
29416;SDS011;28421;51.030;4.006;2022-12-18T17:43:33;37.22;;;18.65;;
29416;SDS011;28421;51.030;4.006;2022-12-18T17:46:03;46.95;;;20.10;;
29416;SDS011;28421;51.030;4.006;2022-12-18T17:48:30;35.08;;;18.30;;
29416;SDS011;28421;51.030;4.006;2022-12-18T17:51:02;38.58;;;19.35;;
29416;SDS011;28421;51.030;4.006;2022-12-18T17:53:29;45.00;;;19.25;;
29416;SDS011;28421;51.030;4.006;2022-12-18T17:55:56;42.47;;;18.45;;
29416;SDS011;28421;51.030;4.006;2022-12-18T17:58:23;39.78;;;18.25;;
29416;SDS011;28421;51.030;4.006;2022-12-18T18:00:49;35.90;;;17.40;;
29416;SDS011;28421;51.030;4.006;2022-12-18T18:03:15;37.33;;;18.95;;
29416;SDS011;28421;51.030;4.006;2022-12-18T18:05:40;42.85;;;19.30;;
29416;SDS011;28421;51.030;4.006;2022-12-18T18:08:06;47.20;;;20.60;;
29416;SDS011;28421;51.030;4.006;2022-12-18T18:10:34;44.20;;;19.50;;
29416;SDS011;28421;51.030;4.006;2022-12-18T18:13:00;45.30;;;18.90;;
29416;SDS011;28421;51.030;4.006;2022-12-18T18:15:44;41.07;;;18.93;;
29416;SDS011;28421;51.030;4.006;2022-12-18T18:18:20;36.47;;;17.60;;
29416;SDS011;28421;51.030;4.006;2022-12-18T18:20:45;39.85;;;19.10;;
29416;SDS011;28421;51.030;4.006;2022-12-18T18:23:11;42.67;;;19.38;;
29416;SDS011;28421;51.030;4.006;2022-12-18T18:25:36;39.17;;;17.00;;
29416;SDS011;28421;51.030;4.006;2022-12-18T18:28:02;50.10;;;21.17;;
29416;SDS011;28421;51.030;4.006;2022-12-18T18:30:28;39.65;;;18.25;;
29416;SDS011;28421;51.030;4.006;2022-12-18T18:32:54;43.55;;;19.38;;
29416;SDS011;28421;51.030;4.006;2022-12-18T18:35:19;47.08;;;18.80;;
29416;SDS011;28421;51.030;4.006;2022-12-18T18:37:46;41.75;;;17.98;;
29416;SDS011;28421;51.030;4.006;2022-12-18T18:40:12;39.05;;;18.63;;
29416;SDS011;28421;51.030;4.006;2022-12-18T18:42:37;37.55;;;18.05;;
29416;SDS011;28421;51.030;4.006;2022-12-18T18:45:03;42.08;;;19.48;;
29416;SDS011;28421;51.030;4.006;2022-12-18T18:47:29;41.92;;;17.25;;
29416;SDS011;28421;51.030;4.006;2022-12-18T18:49:54;42.67;;;19.35;;
29416;SDS011;28421;51.030;4.006;2022-12-18T18:52:20;44.03;;;19.38;;
29416;SDS011;28421;51.030;4.006;2022-12-18T18:54:46;39.47;;;18.98;;
29416;SDS011;28421;51.030;4.006;2022-12-18T18:57:13;49.85;;;20.70;;
29416;SDS011;28421;51.030;4.006;2022-12-18T18:59:39;41.05;;;18.17;;
29416;SDS011;28421;51.030;4.006;2022-12-18T19:02:05;40.63;;;19.30;;
29416;SDS011;28421;51.030;4.006;2022-12-18T19:04:34;42.85;;;18.88;;
29416;SDS011;28421;51.030;4.006;2022-12-18T19:07:00;40.15;;;18.10;;
29416;SDS011;28421;51.030;4.006;2022-12-18T19:09:26;44.47;;;18.52;;
29416;SDS011;28421;51.030;4.006;2022-12-18T19:11:51;40.40;;;19.83;;
29416;SDS011;28421;51.030;4.006;2022-12-18T19:14:35;37.70;;;17.77;;
29416;SDS011;28421;51.030;4.006;2022-12-18T19:17:01;33.53;;;17.65;;
29416;SDS011;28421;51.030;4.006;2022-12-18T19:19:26;42.75;;;18.80;;
29416;SDS011;28421;51.030;4.006;2022-12-18T19:21:52;41.47;;;17.88;;
29416;SDS011;28421;51.030;4.006;2022-12-18T19:24:17;38.63;;;19.33;;
29416;SDS011;28421;51.030;4.006;2022-12-18T19:26:43;43.67;;;19.27;;
29416;SDS011;28421;51.030;4.006;2022-12-18T19:29:10;36.22;;;18.30;;
29416;SDS011;28421;51.030;4.006;2022-12-18T19:31:36;42.53;;;18.60;;
29416;SDS011;28421;51.030;4.006;2022-12-18T19:34:03;37.55;;;17.60;;
29416;SDS011;28421;51.030;4.006;2022-12-18T19:36:31;34.10;;;16.60;;
29416;SDS011;28421;51.030;4.006;2022-12-18T19:38:58;35.22;;;16.75;;
29416;SDS011;28421;51.030;4.006;2022-12-18T19:41:25;41.92;;;18.42;;
29416;SDS011;28421;51.030;4.006;2022-12-18T19:43:51;40.53;;;18.98;;
29416;SDS011;28421;51.030;4.006;2022-12-18T19:46:18;41.47;;;17.27;;
29416;SDS011;28421;51.030;4.006;2022-12-18T19:48:45;47.70;;;18.15;;
29416;SDS011;28421;51.030;4.006;2022-12-18T19:53:51;41.67;;;19.08;;
29416;SDS011;28421;51.030;4.006;2022-12-18T19:56:18;35.72;;;17.65;;
29416;SDS011;28421;51.030;4.006;2022-12-18T19:58:45;42.90;;;18.58;;
29416;SDS011;28421;51.030;4.006;2022-12-18T20:01:12;42.70;;;18.42;;
29416;SDS011;28421;51.030;4.006;2022-12-18T20:03:38;31.38;;;16.38;;
29416;SDS011;28421;51.030;4.006;2022-12-18T20:08:38;41.13;;;18.50;;
29416;SDS011;28421;51.030;4.006;2022-12-18T20:11:03;36.83;;;19.30;;
29416;SDS011;28421;51.030;4.006;2022-12-18T20:13:29;35.72;;;17.10;;
29416;SDS011;28421;51.030;4.006;2022-12-18T20:15:54;35.80;;;16.08;;
29416;SDS011;28421;51.030;4.006;2022-12-18T20:18:20;38.42;;;17.95;;
29416;SDS011;28421;51.030;4.006;2022-12-18T20:20:45;28.27;;;14.68;;
29416;SDS011;28421;51.030;4.006;2022-12-18T20:23:11;44.70;;;17.58;;
29416;SDS011;28421;51.030;4.006;2022-12-18T20:25:36;34.03;;;17.20;;
29416;SDS011;28421;51.030;4.006;2022-12-18T20:28:03;35.88;;;16.50;;
29416;SDS011;28421;51.030;4.006;2022-12-18T20:30:28;32.00;;;15.32;;
29416;SDS011;28421;51.030;4.006;2022-12-18T20:32:54;35.05;;;17.85;;
29416;SDS011;28421;51.030;4.006;2022-12-18T20:35:19;35.95;;;17.25;;
29416;SDS011;28421;51.030;4.006;2022-12-18T20:37:45;37.40;;;18.73;;
29416;SDS011;28421;51.030;4.006;2022-12-18T20:40:10;44.35;;;19.27;;
29416;SDS011;28421;51.030;4.006;2022-12-18T20:42:35;38.10;;;17.73;;
29416;SDS011;28421;51.030;4.006;2022-12-18T20:45:01;36.67;;;17.38;;
29416;SDS011;28421;51.030;4.006;2022-12-18T20:47:26;35.92;;;16.35;;
29416;SDS011;28421;51.030;4.006;2022-12-18T20:49:52;36.08;;;19.60;;
29416;SDS011;28421;51.030;4.006;2022-12-18T20:52:17;37.00;;;16.98;;
29416;SDS011;28421;51.030;4.006;2022-12-18T20:54:43;38.58;;;18.85;;
29416;SDS011;28421;51.030;4.006;2022-12-18T20:57:08;38.97;;;17.05;;
29416;SDS011;28421;51.030;4.006;2022-12-18T20:59:33;36.65;;;17.73;;
29416;SDS011;28421;51.030;4.006;2022-12-18T21:01:59;40.03;;;18.95;;
29416;SDS011;28421;51.030;4.006;2022-12-18T21:04:24;34.45;;;16.95;;
29416;SDS011;28421;51.030;4.006;2022-12-18T21:06:50;32.28;;;16.58;;
29416;SDS011;28421;51.030;4.006;2022-12-18T21:09:16;32.17;;;16.83;;
29416;SDS011;28421;51.030;4.006;2022-12-18T21:11:41;38.65;;;17.63;;
29416;SDS011;28421;51.030;4.006;2022-12-18T21:14:39;32.85;;;15.32;;
29416;SDS011;28421;51.030;4.006;2022-12-18T21:17:05;31.88;;;17.00;;
29416;SDS011;28421;51.030;4.006;2022-12-18T21:19:30;34.58;;;17.90;;
29416;SDS011;28421;51.030;4.006;2022-12-18T21:21:56;38.17;;;15.88;;
29416;SDS011;28421;51.030;4.006;2022-12-18T21:24:21;34.05;;;16.77;;
29416;SDS011;28421;51.030;4.006;2022-12-18T21:26:47;38.67;;;18.85;;
29416;SDS011;28421;51.030;4.006;2022-12-18T21:29:18;33.30;;;17.58;;
29416;SDS011;28421;51.030;4.006;2022-12-18T21:31:45;33.22;;;15.32;;
29416;SDS011;28421;51.030;4.006;2022-12-18T21:34:18;33.10;;;16.58;;
29416;SDS011;28421;51.030;4.006;2022-12-18T21:36:46;34.30;;;15.98;;
29416;SDS011;28421;51.030;4.006;2022-12-18T21:39:12;31.23;;;17.50;;
29416;SDS011;28421;51.030;4.006;2022-12-18T21:41:38;31.90;;;14.77;;
29416;SDS011;28421;51.030;4.006;2022-12-18T21:44:22;29.73;;;15.73;;
29416;SDS011;28421;51.030;4.006;2022-12-18T21:46:48;34.60;;;16.73;;
29416;SDS011;28421;51.030;4.006;2022-12-18T21:49:15;35.60;;;16.05;;
29416;SDS011;28421;51.030;4.006;2022-12-18T21:51:42;32.25;;;15.98;;
29416;SDS011;28421;51.030;4.006;2022-12-18T21:54:09;34.25;;;15.85;;
29416;SDS011;28421;51.030;4.006;2022-12-18T21:56:41;29.95;;;16.02;;
29416;SDS011;28421;51.030;4.006;2022-12-18T21:59:11;36.35;;;17.15;;
